sensor_id;sensor_type;location;lat;lon;timestamp;P1;durP1;ratioP1;P2;durP2;ratioP2
45618;SDS011;31343;47.520;19.144;2023-02-19T00:01:08;3.33;;;1.40;;
45618;SDS011;31343;47.520;19.144;2023-02-19T00:03:36;1.90;;;1.25;;
45618;SDS011;31343;47.520;19.144;2023-02-19T00:06:03;2.17;;;1.20;;
45618;SDS011;31343;47.520;19.144;2023-02-19T00:08:31;2.15;;;1.00;;
45618;SDS011;31343;47.520;19.144;2023-02-19T00:11:02;2.47;;;1.23;;
45618;SDS011;31343;47.520;19.144;2023-02-19T00:13:37;3.53;;;1.38;;
45618;SDS011;31343;47.520;19.144;2023-02-19T00:16:04;2.17;;;1.15;;
45618;SDS011;31343;47.520;19.144;2023-02-19T00:18:31;1.98;;;1.10;;
45618;SDS011;31343;47.520;19.144;2023-02-19T00:20:57;1.92;;;1.10;;
45618;SDS011;31343;47.520;19.144;2023-02-19T00:23:22;2.75;;;1.10;;
45618;SDS011;31343;47.520;19.144;2023-02-19T00:25:49;1.40;;;0.82;;
45618;SDS011;31343;47.520;19.144;2023-02-19T00:28:15;2.60;;;1.30;;
45618;SDS011;31343;47.520;19.144;2023-02-19T00:30:41;3.58;;;1.20;;
45618;SDS011;31343;47.520;19.144;2023-02-19T00:33:06;1.73;;;1.00;;
45618;SDS011;31343;47.520;19.144;2023-02-19T00:35:33;3.17;;;1.25;;
45618;SDS011;31343;47.520;19.144;2023-02-19T00:37:59;1.35;;;0.77;;
45618;SDS011;31343;47.520;19.144;2023-02-19T00:40:26;2.38;;;1.20;;
45618;SDS011;31343;47.520;19.144;2023-02-19T00:42:52;2.58;;;1.20;;
45618;SDS011;31343;47.520;19.144;2023-02-19T00:45:17;2.42;;;0.90;;
45618;SDS011;31343;47.520;19.144;2023-02-19T00:47:43;1.40;;;1.00;;
45618;SDS011;31343;47.520;19.144;2023-02-19T00:50:09;3.05;;;1.30;;
45618;SDS011;31343;47.520;19.144;2023-02-19T00:52:35;2.03;;;1.20;;
45618;SDS011;31343;47.520;19.144;2023-02-19T00:55:00;2.00;;;1.10;;
45618;SDS011;31343;47.520;19.144;2023-02-19T00:57:26;2.15;;;0.98;;
45618;SDS011;31343;47.520;19.144;2023-02-19T00:59:52;3.17;;;1.02;;
45618;SDS011;31343;47.520;19.144;2023-02-19T01:02:18;1.30;;;0.80;;
45618;SDS011;31343;47.520;19.144;2023-02-19T01:04:43;2.13;;;0.95;;
45618;SDS011;31343;47.520;19.144;2023-02-19T01:07:09;1.70;;;1.00;;
45618;SDS011;31343;47.520;19.144;2023-02-19T01:09:35;1.40;;;0.90;;
45618;SDS011;31343;47.520;19.144;2023-02-19T01:12:02;2.42;;;1.00;;
45618;SDS011;31343;47.520;19.144;2023-02-19T01:14:29;0.90;;;0.70;;
45618;SDS011;31343;47.520;19.144;2023-02-19T01:16:55;2.50;;;0.80;;
45618;SDS011;31343;47.520;19.144;2023-02-19T01:19:22;1.42;;;0.80;;
45618;SDS011;31343;47.520;19.144;2023-02-19T01:21:47;1.25;;;0.77;;
45618;SDS011;31343;47.520;19.144;2023-02-19T01:24:13;1.48;;;0.90;;
45618;SDS011;31343;47.520;19.144;2023-02-19T01:26:41;1.77;;;1.15;;
45618;SDS011;31343;47.520;19.144;2023-02-19T01:29:07;1.60;;;0.90;;
45618;SDS011;31343;47.520;19.144;2023-02-19T01:31:33;1.60;;;0.80;;
45618;SDS011;31343;47.520;19.144;2023-02-19T01:34:00;1.13;;;0.70;;
45618;SDS011;31343;47.520;19.144;2023-02-19T01:36:27;1.63;;;0.88;;
45618;SDS011;31343;47.520;19.144;2023-02-19T01:38:54;0.93;;;0.75;;
45618;SDS011;31343;47.520;19.144;2023-02-19T01:41:21;0.88;;;0.60;;
45618;SDS011;31343;47.520;19.144;2023-02-19T01:48:52;1.15;;;0.82;;
45618;SDS011;31343;47.520;19.144;2023-02-19T01:51:19;1.05;;;0.90;;
45618;SDS011;31343;47.520;19.144;2023-02-19T01:53:47;1.38;;;0.82;;
45618;SDS011;31343;47.520;19.144;2023-02-19T01:56:17;0.98;;;0.70;;
45618;SDS011;31343;47.520;19.144;2023-02-19T01:58:44;1.92;;;1.10;;
45618;SDS011;31343;47.520;19.144;2023-02-19T02:01:10;1.30;;;0.70;;
45618;SDS011;31343;47.520;19.144;2023-02-19T02:03:37;1.52;;;0.85;;
45618;SDS011;31343;47.520;19.144;2023-02-19T02:06:17;1.05;;;0.73;;
45618;SDS011;31343;47.520;19.144;2023-02-19T02:08:52;1.33;;;0.80;;
45618;SDS011;31343;47.520;19.144;2023-02-19T02:11:39;1.33;;;0.82;;
45618;SDS011;31343;47.520;19.144;2023-02-19T02:14:12;1.60;;;0.70;;
45618;SDS011;31343;47.520;19.144;2023-02-19T02:22:06;1.33;;;0.73;;
45618;SDS011;31343;47.520;19.144;2023-02-19T02:30:28;1.30;;;0.80;;
45618;SDS011;31343;47.520;19.144;2023-02-19T02:33:04;1.25;;;0.70;;
45618;SDS011;31343;47.520;19.144;2023-02-19T02:35:48;1.58;;;0.88;;
45618;SDS011;31343;47.520;19.144;2023-02-19T02:38:17;1.88;;;0.77;;
45618;SDS011;31343;47.520;19.144;2023-02-19T02:40:45;1.17;;;0.70;;
45618;SDS011;31343;47.520;19.144;2023-02-19T02:43:12;1.27;;;0.85;;
45618;SDS011;31343;47.520;19.144;2023-02-19T02:45:38;1.42;;;0.80;;
45618;SDS011;31343;47.520;19.144;2023-02-19T02:50:58;1.20;;;0.73;;
45618;SDS011;31343;47.520;19.144;2023-02-19T02:53:29;0.80;;;0.60;;
45618;SDS011;31343;47.520;19.144;2023-02-19T02:56:19;0.45;;;0.45;;
45618;SDS011;31343;47.520;19.144;2023-02-19T02:58:46;0.95;;;0.68;;
45618;SDS011;31343;47.520;19.144;2023-02-19T03:01:18;0.90;;;0.55;;
45618;SDS011;31343;47.520;19.144;2023-02-19T03:07:50;0.93;;;0.73;;
45618;SDS011;31343;47.520;19.144;2023-02-19T03:13:23;1.02;;;0.65;;
45618;SDS011;31343;47.520;19.144;2023-02-19T03:16:22;1.20;;;0.70;;
45618;SDS011;31343;47.520;19.144;2023-02-19T03:19:11;0.50;;;0.50;;
45618;SDS011;31343;47.520;19.144;2023-02-19T03:21:59;1.00;;;0.60;;
45618;SDS011;31343;47.520;19.144;2023-02-19T03:24:35;1.45;;;0.82;;
45618;SDS011;31343;47.520;19.144;2023-02-19T03:27:24;1.10;;;0.70;;
45618;SDS011;31343;47.520;19.144;2023-02-19T03:29:57;2.05;;;0.70;;
45618;SDS011;31343;47.520;19.144;2023-02-19T03:32:43;1.88;;;1.00;;
45618;SDS011;31343;47.520;19.144;2023-02-19T03:40:14;2.95;;;0.90;;
45618;SDS011;31343;47.520;19.144;2023-02-19T03:48:22;1.42;;;0.70;;
45618;SDS011;31343;47.520;19.144;2023-02-19T03:51:06;1.20;;;0.80;;
45618;SDS011;31343;47.520;19.144;2023-02-19T03:53:57;1.40;;;0.88;;
45618;SDS011;31343;47.520;19.144;2023-02-19T03:56:53;1.45;;;0.80;;
45618;SDS011;31343;47.520;19.144;2023-02-19T03:59:51;1.40;;;0.90;;
45618;SDS011;31343;47.520;19.144;2023-02-19T04:02:57;0.80;;;0.57;;
45618;SDS011;31343;47.520;19.144;2023-02-19T04:05:31;2.40;;;1.70;;
45618;SDS011;31343;47.520;19.144;2023-02-19T04:08:11;2.28;;;1.00;;
45618;SDS011;31343;47.520;19.144;2023-02-19T04:10:40;3.58;;;0.90;;
45618;SDS011;31343;47.520;19.144;2023-02-19T04:13:10;1.08;;;0.63;;
45618;SDS011;31343;47.520;19.144;2023-02-19T04:15:41;2.00;;;0.90;;
45618;SDS011;31343;47.520;19.144;2023-02-19T04:18:11;1.33;;;0.90;;
45618;SDS011;31343;47.520;19.144;2023-02-19T04:20:41;1.95;;;0.95;;
45618;SDS011;31343;47.520;19.144;2023-02-19T04:23:08;1.48;;;0.70;;
45618;SDS011;31343;47.520;19.144;2023-02-19T04:25:36;1.30;;;0.70;;
45618;SDS011;31343;47.520;19.144;2023-02-19T04:28:03;0.98;;;0.70;;
45618;SDS011;31343;47.520;19.144;2023-02-19T04:30:29;0.88;;;0.70;;
45618;SDS011;31343;47.520;19.144;2023-02-19T04:32:56;0.95;;;0.70;;
45618;SDS011;31343;47.520;19.144;2023-02-19T04:35:23;1.48;;;0.90;;
45618;SDS011;31343;47.520;19.144;2023-02-19T04:37:48;1.20;;;0.70;;
45618;SDS011;31343;47.520;19.144;2023-02-19T04:40:16;1.27;;;0.80;;
45618;SDS011;31343;47.520;19.144;2023-02-19T04:42:42;3.55;;;1.70;;
45618;SDS011;31343;47.520;19.144;2023-02-19T04:45:09;1.92;;;0.82;;
45618;SDS011;31343;47.520;19.144;2023-02-19T04:47:35;1.95;;;0.70;;
45618;SDS011;31343;47.520;19.144;2023-02-19T04:50:01;1.15;;;0.70;;
45618;SDS011;31343;47.520;19.144;2023-02-19T04:52:27;0.88;;;0.65;;
45618;SDS011;31343;47.520;19.144;2023-02-19T04:54:52;0.90;;;0.75;;
45618;SDS011;31343;47.520;19.144;2023-02-19T04:57:19;1.35;;;0.90;;
45618;SDS011;31343;47.520;19.144;2023-02-19T04:59:45;0.90;;;0.70;;
45618;SDS011;31343;47.520;19.144;2023-02-19T05:02:11;1.95;;;0.80;;
45618;SDS011;31343;47.520;19.144;2023-02-19T05:04:37;1.95;;;0.70;;
45618;SDS011;31343;47.520;19.144;2023-02-19T05:07:02;0.77;;;0.57;;
45618;SDS011;31343;47.520;19.144;2023-02-19T05:09:28;0.90;;;0.70;;
45618;SDS011;31343;47.520;19.144;2023-02-19T05:11:54;1.08;;;0.70;;
45618;SDS011;31343;47.520;19.144;2023-02-19T05:14:20;1.02;;;0.60;;
45618;SDS011;31343;47.520;19.144;2023-02-19T05:16:45;1.95;;;0.73;;
45618;SDS011;31343;47.520;19.144;2023-02-19T05:19:11;1.45;;;0.82;;
45618;SDS011;31343;47.520;19.144;2023-02-19T05:21:37;1.10;;;0.90;;
45618;SDS011;31343;47.520;19.144;2023-02-19T05:24:06;2.20;;;0.80;;
45618;SDS011;31343;47.520;19.144;2023-02-19T05:26:32;1.48;;;0.90;;
45618;SDS011;31343;47.520;19.144;2023-02-19T05:28:58;1.02;;;0.68;;
45618;SDS011;31343;47.520;19.144;2023-02-19T05:31:25;1.48;;;0.80;;
45618;SDS011;31343;47.520;19.144;2023-02-19T05:33:54;1.20;;;0.80;;
45618;SDS011;31343;47.520;19.144;2023-02-19T05:36:20;1.38;;;0.90;;
45618;SDS011;31343;47.520;19.144;2023-02-19T05:38:46;0.80;;;0.50;;
45618;SDS011;31343;47.520;19.144;2023-02-19T05:41:17;0.57;;;0.55;;
45618;SDS011;31343;47.520;19.144;2023-02-19T05:43:45;1.95;;;1.35;;
45618;SDS011;31343;47.520;19.144;2023-02-19T05:46:12;1.30;;;0.90;;
45618;SDS011;31343;47.520;19.144;2023-02-19T05:48:40;0.90;;;0.50;;
45618;SDS011;31343;47.520;19.144;2023-02-19T05:51:07;1.02;;;0.73;;
45618;SDS011;31343;47.520;19.144;2023-02-19T05:53:35;3.72;;;0.80;;
45618;SDS011;31343;47.520;19.144;2023-02-19T05:56:01;0.90;;;0.55;;
45618;SDS011;31343;47.520;19.144;2023-02-19T05:58:27;1.02;;;0.63;;
45618;SDS011;31343;47.520;19.144;2023-02-19T06:00:53;1.83;;;0.90;;
45618;SDS011;31343;47.520;19.144;2023-02-19T06:03:21;0.93;;;0.70;;
45618;SDS011;31343;47.520;19.144;2023-02-19T06:05:47;1.20;;;0.73;;
45618;SDS011;31343;47.520;19.144;2023-02-19T06:08:13;1.58;;;0.70;;
45618;SDS011;31343;47.520;19.144;2023-02-19T06:10:40;1.42;;;0.80;;
45618;SDS011;31343;47.520;19.144;2023-02-19T06:13:07;1.42;;;0.95;;
45618;SDS011;31343;47.520;19.144;2023-02-19T06:15:33;2.00;;;1.10;;
45618;SDS011;31343;47.520;19.144;2023-02-19T06:17:59;2.20;;;1.50;;
45618;SDS011;31343;47.520;19.144;2023-02-19T06:20:25;3.08;;;1.23;;
45618;SDS011;31343;47.520;19.144;2023-02-19T06:22:51;2.08;;;1.10;;
45618;SDS011;31343;47.520;19.144;2023-02-19T06:25:17;2.47;;;1.45;;
45618;SDS011;31343;47.520;19.144;2023-02-19T06:27:44;2.28;;;1.20;;
45618;SDS011;31343;47.520;19.144;2023-02-19T06:30:10;2.53;;;1.48;;
45618;SDS011;31343;47.520;19.144;2023-02-19T06:32:36;2.85;;;1.48;;
45618;SDS011;31343;47.520;19.144;2023-02-19T06:35:02;2.53;;;1.63;;
45618;SDS011;31343;47.520;19.144;2023-02-19T06:37:28;2.88;;;1.52;;
45618;SDS011;31343;47.520;19.144;2023-02-19T06:39:54;4.80;;;1.65;;
45618;SDS011;31343;47.520;19.144;2023-02-19T06:42:20;2.70;;;1.63;;
45618;SDS011;31343;47.520;19.144;2023-02-19T06:44:46;2.67;;;1.58;;
45618;SDS011;31343;47.520;19.144;2023-02-19T06:47:11;4.20;;;1.92;;
45618;SDS011;31343;47.520;19.144;2023-02-19T06:49:40;5.63;;;2.35;;
45618;SDS011;31343;47.520;19.144;2023-02-19T06:52:06;3.88;;;1.63;;
45618;SDS011;31343;47.520;19.144;2023-02-19T06:54:31;3.95;;;2.13;;
45618;SDS011;31343;47.520;19.144;2023-02-19T06:56:58;4.20;;;2.50;;
45618;SDS011;31343;47.520;19.144;2023-02-19T06:59:24;3.53;;;2.22;;
45618;SDS011;31343;47.520;19.144;2023-02-19T07:01:50;3.97;;;2.22;;
45618;SDS011;31343;47.520;19.144;2023-02-19T07:04:16;3.70;;;2.28;;
45618;SDS011;31343;47.520;19.144;2023-02-19T07:06:42;5.45;;;2.75;;
45618;SDS011;31343;47.520;19.144;2023-02-19T07:09:08;4.80;;;2.70;;
45618;SDS011;31343;47.520;19.144;2023-02-19T07:11:35;6.10;;;3.10;;
45618;SDS011;31343;47.520;19.144;2023-02-19T07:14:03;5.50;;;3.63;;
45618;SDS011;31343;47.520;19.144;2023-02-19T07:16:32;7.45;;;3.10;;
45618;SDS011;31343;47.520;19.144;2023-02-19T07:18:59;5.00;;;3.15;;
45618;SDS011;31343;47.520;19.144;2023-02-19T07:21:25;6.07;;;3.95;;
45618;SDS011;31343;47.520;19.144;2023-02-19T07:23:53;9.15;;;4.43;;
45618;SDS011;31343;47.520;19.144;2023-02-19T07:26:19;8.07;;;4.85;;
45618;SDS011;31343;47.520;19.144;2023-02-19T07:28:46;8.02;;;4.95;;
45618;SDS011;31343;47.520;19.144;2023-02-19T07:31:13;6.90;;;4.25;;
45618;SDS011;31343;47.520;19.144;2023-02-19T07:33:43;10.23;;;5.32;;
45618;SDS011;31343;47.520;19.144;2023-02-19T07:36:09;11.10;;;5.57;;
45618;SDS011;31343;47.520;19.144;2023-02-19T07:38:35;10.80;;;5.80;;
45618;SDS011;31343;47.520;19.144;2023-02-19T07:41:02;11.48;;;6.45;;
45618;SDS011;31343;47.520;19.144;2023-02-19T07:43:30;13.13;;;7.00;;
45618;SDS011;31343;47.520;19.144;2023-02-19T07:45:57;11.30;;;7.07;;
45618;SDS011;31343;47.520;19.144;2023-02-19T07:48:23;11.35;;;7.05;;
45618;SDS011;31343;47.520;19.144;2023-02-19T07:50:56;13.13;;;7.00;;
45618;SDS011;31343;47.520;19.144;2023-02-19T07:53:23;13.00;;;7.38;;
45618;SDS011;31343;47.520;19.144;2023-02-19T07:55:49;16.90;;;8.52;;
45618;SDS011;31343;47.520;19.144;2023-02-19T07:58:15;20.48;;;10.52;;
45618;SDS011;31343;47.520;19.144;2023-02-19T08:00:41;16.85;;;8.57;;
45618;SDS011;31343;47.520;19.144;2023-02-19T08:03:07;16.40;;;8.73;;
45618;SDS011;31343;47.520;19.144;2023-02-19T08:05:36;14.82;;;8.15;;
45618;SDS011;31343;47.520;19.144;2023-02-19T08:08:07;14.32;;;8.73;;
45618;SDS011;31343;47.520;19.144;2023-02-19T08:10:34;12.90;;;7.55;;
45618;SDS011;31343;47.520;19.144;2023-02-19T08:13:18;13.85;;;7.15;;
45618;SDS011;31343;47.520;19.144;2023-02-19T08:15:48;14.75;;;7.85;;
45618;SDS011;31343;47.520;19.144;2023-02-19T08:18:16;14.32;;;8.25;;
45618;SDS011;31343;47.520;19.144;2023-02-19T08:20:44;11.07;;;6.90;;
45618;SDS011;31343;47.520;19.144;2023-02-19T08:23:10;13.65;;;8.10;;
45618;SDS011;31343;47.520;19.144;2023-02-19T08:25:36;10.60;;;6.45;;
45618;SDS011;31343;47.520;19.144;2023-02-19T08:28:03;10.50;;;6.43;;
45618;SDS011;31343;47.520;19.144;2023-02-19T08:30:30;12.38;;;6.95;;
45618;SDS011;31343;47.520;19.144;2023-02-19T08:32:58;14.00;;;7.60;;
45618;SDS011;31343;47.520;19.144;2023-02-19T08:35:25;16.77;;;8.48;;
45618;SDS011;31343;47.520;19.144;2023-02-19T08:37:56;17.10;;;8.70;;
45618;SDS011;31343;47.520;19.144;2023-02-19T08:40:23;15.52;;;8.38;;
45618;SDS011;31343;47.520;19.144;2023-02-19T08:42:49;16.90;;;8.98;;
45618;SDS011;31343;47.520;19.144;2023-02-19T08:45:15;16.98;;;9.10;;
45618;SDS011;31343;47.520;19.144;2023-02-19T08:47:43;16.60;;;8.95;;
45618;SDS011;31343;47.520;19.144;2023-02-19T08:50:09;17.42;;;8.77;;
45618;SDS011;31343;47.520;19.144;2023-02-19T08:52:35;17.55;;;9.23;;
45618;SDS011;31343;47.520;19.144;2023-02-19T08:55:01;17.58;;;8.38;;
45618;SDS011;31343;47.520;19.144;2023-02-19T08:57:33;14.43;;;7.40;;
45618;SDS011;31343;47.520;19.144;2023-02-19T09:00:01;14.70;;;8.23;;
45618;SDS011;31343;47.520;19.144;2023-02-19T09:02:27;13.73;;;7.25;;
45618;SDS011;31343;47.520;19.144;2023-02-19T09:04:54;13.02;;;7.10;;
45618;SDS011;31343;47.520;19.144;2023-02-19T09:07:21;12.93;;;7.60;;
45618;SDS011;31343;47.520;19.144;2023-02-19T09:09:48;13.95;;;7.30;;
45618;SDS011;31343;47.520;19.144;2023-02-19T09:12:16;8.80;;;5.45;;
45618;SDS011;31343;47.520;19.144;2023-02-19T09:14:42;8.80;;;4.60;;
45618;SDS011;31343;47.520;19.144;2023-02-19T09:17:08;7.25;;;4.78;;
45618;SDS011;31343;47.520;19.144;2023-02-19T09:19:34;6.63;;;4.05;;
45618;SDS011;31343;47.520;19.144;2023-02-19T09:22:00;7.43;;;4.10;;
45618;SDS011;31343;47.520;19.144;2023-02-19T09:24:26;6.25;;;3.58;;
45618;SDS011;31343;47.520;19.144;2023-02-19T09:26:53;7.60;;;4.68;;
45618;SDS011;31343;47.520;19.144;2023-02-19T09:29:20;6.95;;;4.70;;
45618;SDS011;31343;47.520;19.144;2023-02-19T09:31:48;7.13;;;3.88;;
45618;SDS011;31343;47.520;19.144;2023-02-19T09:34:13;7.70;;;4.88;;
45618;SDS011;31343;47.520;19.144;2023-02-19T09:36:41;7.10;;;3.90;;
45618;SDS011;31343;47.520;19.144;2023-02-19T09:39:08;6.70;;;4.47;;
45618;SDS011;31343;47.520;19.144;2023-02-19T09:41:37;8.73;;;4.38;;
45618;SDS011;31343;47.520;19.144;2023-02-19T09:44:11;8.35;;;4.15;;
45618;SDS011;31343;47.520;19.144;2023-02-19T09:46:44;5.80;;;3.72;;
45618;SDS011;31343;47.520;19.144;2023-02-19T09:49:13;7.60;;;5.07;;
45618;SDS011;31343;47.520;19.144;2023-02-19T09:51:46;8.85;;;4.95;;
45618;SDS011;31343;47.520;19.144;2023-02-19T09:54:26;10.43;;;5.03;;
45618;SDS011;31343;47.520;19.144;2023-02-19T09:56:54;9.98;;;5.20;;
45618;SDS011;31343;47.520;19.144;2023-02-19T09:59:25;6.78;;;4.10;;
45618;SDS011;31343;47.520;19.144;2023-02-19T10:04:49;7.88;;;3.92;;
45618;SDS011;31343;47.520;19.144;2023-02-19T10:07:17;8.88;;;3.88;;
45618;SDS011;31343;47.520;19.144;2023-02-19T10:10:01;7.53;;;4.25;;
45618;SDS011;31343;47.520;19.144;2023-02-19T10:12:38;9.85;;;4.50;;
45618;SDS011;31343;47.520;19.144;2023-02-19T10:15:29;6.82;;;4.20;;
45618;SDS011;31343;47.520;19.144;2023-02-19T10:18:00;7.63;;;4.38;;
45618;SDS011;31343;47.520;19.144;2023-02-19T10:20:28;8.23;;;4.55;;
45618;SDS011;31343;47.520;19.144;2023-02-19T10:23:04;7.15;;;4.35;;
45618;SDS011;31343;47.520;19.144;2023-02-19T10:25:32;9.15;;;4.82;;
45618;SDS011;31343;47.520;19.144;2023-02-19T10:27:59;7.00;;;4.00;;
45618;SDS011;31343;47.520;19.144;2023-02-19T10:30:30;6.97;;;3.90;;
45618;SDS011;31343;47.520;19.144;2023-02-19T10:36:23;5.43;;;3.28;;
45618;SDS011;31343;47.520;19.144;2023-02-19T10:43:30;5.13;;;2.90;;
45618;SDS011;31343;47.520;19.144;2023-02-19T10:46:43;6.13;;;3.67;;
45618;SDS011;31343;47.520;19.144;2023-02-19T10:48:54;5.18;;;2.35;;
45618;SDS011;31343;47.520;19.144;2023-02-19T10:51:32;4.70;;;2.67;;
45618;SDS011;31343;47.520;19.144;2023-02-19T10:54:18;4.45;;;2.53;;
45618;SDS011;31343;47.520;19.144;2023-02-19T10:56:49;4.10;;;2.25;;
45618;SDS011;31343;47.520;19.144;2023-02-19T10:59:20;4.68;;;2.40;;
45618;SDS011;31343;47.520;19.144;2023-02-19T11:02:00;6.38;;;2.90;;
45618;SDS011;31343;47.520;19.144;2023-02-19T11:04:28;5.20;;;2.45;;
45618;SDS011;31343;47.520;19.144;2023-02-19T11:07:09;4.88;;;2.35;;
45618;SDS011;31343;47.520;19.144;2023-02-19T11:09:39;4.38;;;2.17;;
45618;SDS011;31343;47.520;19.144;2023-02-19T11:12:09;3.88;;;2.33;;
45618;SDS011;31343;47.520;19.144;2023-02-19T11:14:46;5.78;;;2.08;;
45618;SDS011;31343;47.520;19.144;2023-02-19T11:19:50;3.08;;;1.52;;
45618;SDS011;31343;47.520;19.144;2023-02-19T11:22:29;3.45;;;1.58;;
45618;SDS011;31343;47.520;19.144;2023-02-19T11:24:56;2.60;;;1.45;;
45618;SDS011;31343;47.520;19.144;2023-02-19T11:27:30;3.17;;;1.60;;
45618;SDS011;31343;47.520;19.144;2023-02-19T11:30:21;2.83;;;1.70;;
45618;SDS011;31343;47.520;19.144;2023-02-19T11:35:49;4.15;;;2.22;;
45618;SDS011;31343;47.520;19.144;2023-02-19T11:38:36;2.97;;;1.45;;
45618;SDS011;31343;47.520;19.144;2023-02-19T11:44:10;4.53;;;2.22;;
45618;SDS011;31343;47.520;19.144;2023-02-19T11:53:27;3.20;;;1.63;;
45618;SDS011;31343;47.520;19.144;2023-02-19T11:55:55;3.95;;;1.70;;
45618;SDS011;31343;47.520;19.144;2023-02-19T12:14:37;3.42;;;1.60;;
45618;SDS011;31343;47.520;19.144;2023-02-19T12:23:20;3.03;;;1.50;;
45618;SDS011;31343;47.520;19.144;2023-02-19T12:45:16;2.63;;;1.60;;
45618;SDS011;31343;47.520;19.144;2023-02-19T12:47:48;2.67;;;1.50;;
45618;SDS011;31343;47.520;19.144;2023-02-19T12:50:29;2.40;;;1.20;;
45618;SDS011;31343;47.520;19.144;2023-02-19T12:53:04;2.08;;;1.20;;
45618;SDS011;31343;47.520;19.144;2023-02-19T12:55:48;2.20;;;1.13;;
45618;SDS011;31343;47.520;19.144;2023-02-19T12:58:22;2.85;;;1.30;;
45618;SDS011;31343;47.520;19.144;2023-02-19T13:00:53;2.22;;;1.40;;
45618;SDS011;31343;47.520;19.144;2023-02-19T13:03:39;2.80;;;1.42;;
45618;SDS011;31343;47.520;19.144;2023-02-19T13:08:57;1.65;;;1.00;;
45618;SDS011;31343;47.520;19.144;2023-02-19T13:11:53;1.90;;;0.95;;
45618;SDS011;31343;47.520;19.144;2023-02-19T13:19:45;1.35;;;0.75;;
45618;SDS011;31343;47.520;19.144;2023-02-19T13:25:20;1.25;;;0.63;;
45618;SDS011;31343;47.520;19.144;2023-02-19T13:30:31;1.70;;;0.98;;
45618;SDS011;31343;47.520;19.144;2023-02-19T13:36:33;1.95;;;1.00;;
45618;SDS011;31343;47.520;19.144;2023-02-19T13:39:03;1.65;;;0.80;;
45618;SDS011;31343;47.520;19.144;2023-02-19T13:41:38;1.73;;;1.02;;
45618;SDS011;31343;47.520;19.144;2023-02-19T13:44:17;1.65;;;1.10;;
45618;SDS011;31343;47.520;19.144;2023-02-19T13:46:45;1.83;;;0.90;;
45618;SDS011;31343;47.520;19.144;2023-02-19T13:51:50;2.00;;;1.00;;
45618;SDS011;31343;47.520;19.144;2023-02-19T13:54:24;2.72;;;0.80;;
45618;SDS011;31343;47.520;19.144;2023-02-19T13:59:48;1.85;;;0.70;;
45618;SDS011;31343;47.520;19.144;2023-02-19T14:04:48;2.97;;;1.23;;
45618;SDS011;31343;47.520;19.144;2023-02-19T14:07:33;2.15;;;1.10;;
45618;SDS011;31343;47.520;19.144;2023-02-19T14:16:28;3.92;;;1.40;;
45618;SDS011;31343;47.520;19.144;2023-02-19T14:18:57;4.43;;;1.60;;
45618;SDS011;31343;47.520;19.144;2023-02-19T14:21:24;7.20;;;3.17;;
45618;SDS011;31343;47.520;19.144;2023-02-19T14:23:58;2.97;;;1.58;;
45618;SDS011;31343;47.520;19.144;2023-02-19T14:26:25;2.08;;;1.20;;
45618;SDS011;31343;47.520;19.144;2023-02-19T14:28:51;1.45;;;0.80;;
45618;SDS011;31343;47.520;19.144;2023-02-19T14:31:31;2.20;;;0.70;;
45618;SDS011;31343;47.520;19.144;2023-02-19T14:34:03;2.05;;;1.02;;
45618;SDS011;31343;47.520;19.144;2023-02-19T14:36:48;2.10;;;0.77;;
45618;SDS011;31343;47.520;19.144;2023-02-19T14:39:23;1.00;;;0.60;;
45618;SDS011;31343;47.520;19.144;2023-02-19T14:41:55;0.47;;;0.47;;
45618;SDS011;31343;47.520;19.144;2023-02-19T14:44:27;0.50;;;0.30;;
45618;SDS011;31343;47.520;19.144;2023-02-19T14:46:56;1.30;;;0.57;;
45618;SDS011;31343;47.520;19.144;2023-02-19T14:52:39;0.40;;;0.40;;
45618;SDS011;31343;47.520;19.144;2023-02-19T14:57:40;1.23;;;0.70;;
45618;SDS011;31343;47.520;19.144;2023-02-19T15:00:26;4.72;;;1.83;;
45618;SDS011;31343;47.520;19.144;2023-02-19T15:02:54;1.63;;;0.77;;
45618;SDS011;31343;47.520;19.144;2023-02-19T15:05:23;0.98;;;0.65;;
45618;SDS011;31343;47.520;19.144;2023-02-19T15:07:52;2.08;;;1.08;;
45618;SDS011;31343;47.520;19.144;2023-02-19T15:10:21;1.38;;;0.88;;
45618;SDS011;31343;47.520;19.144;2023-02-19T15:12:51;1.90;;;1.10;;
45618;SDS011;31343;47.520;19.144;2023-02-19T15:17:53;1.73;;;0.93;;
45618;SDS011;31343;47.520;19.144;2023-02-19T15:20:24;2.53;;;0.95;;
45618;SDS011;31343;47.520;19.144;2023-02-19T15:22:52;1.63;;;0.80;;
45618;SDS011;31343;47.520;19.144;2023-02-19T15:25:19;1.10;;;0.65;;
45618;SDS011;31343;47.520;19.144;2023-02-19T15:27:47;1.00;;;0.60;;
45618;SDS011;31343;47.520;19.144;2023-02-19T15:32:52;0.60;;;0.60;;
45618;SDS011;31343;47.520;19.144;2023-02-19T15:35:19;1.08;;;0.55;;
45618;SDS011;31343;47.520;19.144;2023-02-19T15:37:48;1.30;;;0.75;;
45618;SDS011;31343;47.520;19.144;2023-02-19T15:40:14;1.65;;;0.70;;
45618;SDS011;31343;47.520;19.144;2023-02-19T15:42:42;0.98;;;0.70;;
45618;SDS011;31343;47.520;19.144;2023-02-19T15:45:19;1.50;;;0.80;;
45618;SDS011;31343;47.520;19.144;2023-02-19T15:55:57;1.52;;;0.80;;
45618;SDS011;31343;47.520;19.144;2023-02-19T15:58:50;1.00;;;0.70;;
45618;SDS011;31343;47.520;19.144;2023-02-19T16:01:37;2.33;;;1.05;;
45618;SDS011;31343;47.520;19.144;2023-02-19T16:04:09;2.13;;;1.23;;
45618;SDS011;31343;47.520;19.144;2023-02-19T16:09:30;2.05;;;0.90;;
45618;SDS011;31343;47.520;19.144;2023-02-19T16:12:22;1.67;;;0.90;;
45618;SDS011;31343;47.520;19.144;2023-02-19T16:14:48;3.05;;;1.00;;
45618;SDS011;31343;47.520;19.144;2023-02-19T16:17:21;0.98;;;0.70;;
45618;SDS011;31343;47.520;19.144;2023-02-19T16:19:56;3.13;;;0.90;;
45618;SDS011;31343;47.520;19.144;2023-02-19T16:22:24;2.38;;;1.02;;
45618;SDS011;31343;47.520;19.144;2023-02-19T16:24:57;1.35;;;0.90;;
45618;SDS011;31343;47.520;19.144;2023-02-19T16:29:55;2.17;;;1.10;;
45618;SDS011;31343;47.520;19.144;2023-02-19T16:32:22;1.55;;;0.85;;
45618;SDS011;31343;47.520;19.144;2023-02-19T16:34:49;2.22;;;0.73;;
45618;SDS011;31343;47.520;19.144;2023-02-19T16:42:33;1.77;;;0.73;;
45618;SDS011;31343;47.520;19.144;2023-02-19T16:45:08;2.40;;;0.90;;
45618;SDS011;31343;47.520;19.144;2023-02-19T16:47:36;0.88;;;0.55;;
45618;SDS011;31343;47.520;19.144;2023-02-19T16:50:09;1.65;;;0.70;;
45618;SDS011;31343;47.520;19.144;2023-02-19T16:52:48;0.95;;;0.40;;
45618;SDS011;31343;47.520;19.144;2023-02-19T16:55:18;1.45;;;0.52;;
45618;SDS011;31343;47.520;19.144;2023-02-19T16:57:43;1.65;;;1.20;;
45618;SDS011;31343;47.520;19.144;2023-02-19T17:00:17;1.42;;;0.60;;
45618;SDS011;31343;47.520;19.144;2023-02-19T17:02:45;1.17;;;0.55;;
45618;SDS011;31343;47.520;19.144;2023-02-19T17:05:12;1.83;;;1.00;;
45618;SDS011;31343;47.520;19.144;2023-02-19T17:07:38;1.73;;;0.80;;
45618;SDS011;31343;47.520;19.144;2023-02-19T17:10:04;1.13;;;0.60;;
45618;SDS011;31343;47.520;19.144;2023-02-19T17:12:30;0.80;;;0.60;;
45618;SDS011;31343;47.520;19.144;2023-02-19T17:14:55;1.33;;;0.70;;
45618;SDS011;31343;47.520;19.144;2023-02-19T17:17:21;1.77;;;0.80;;
45618;SDS011;31343;47.520;19.144;2023-02-19T17:19:47;2.80;;;1.55;;
45618;SDS011;31343;47.520;19.144;2023-02-19T17:22:13;2.58;;;1.67;;
45618;SDS011;31343;47.520;19.144;2023-02-19T17:24:41;2.08;;;0.95;;
45618;SDS011;31343;47.520;19.144;2023-02-19T17:27:11;1.52;;;0.90;;
45618;SDS011;31343;47.520;19.144;2023-02-19T17:29:38;2.30;;;0.90;;
45618;SDS011;31343;47.520;19.144;2023-02-19T17:32:04;1.80;;;1.00;;
45618;SDS011;31343;47.520;19.144;2023-02-19T17:34:30;1.63;;;0.80;;
45618;SDS011;31343;47.520;19.144;2023-02-19T17:36:56;1.10;;;1.00;;